sensor_id;sensor_type;location;lat;lon;timestamp;P1;durP1;ratioP1;P2;durP2;ratioP2
19179;SDS011;9722;48.754;8.868;2023-11-21T00:01:20;2.03;;;1.20;;
19179;SDS011;9722;48.754;8.868;2023-11-21T00:04:41;2.33;;;1.40;;
19179;SDS011;9722;48.754;8.868;2023-11-21T00:08:01;2.43;;;1.60;;
19179;SDS011;9722;48.754;8.868;2023-11-21T00:11:22;4.10;;;1.63;;
19179;SDS011;9722;48.754;8.868;2023-11-21T00:14:42;2.63;;;1.60;;
19179;SDS011;9722;48.754;8.868;2023-11-21T00:18:03;2.57;;;1.03;;
19179;SDS011;9722;48.754;8.868;2023-11-21T00:21:23;3.43;;;1.40;;
19179;SDS011;9722;48.754;8.868;2023-11-21T00:24:44;1.93;;;1.10;;
19179;SDS011;9722;48.754;8.868;2023-11-21T00:28:04;2.30;;;1.60;;
19179;SDS011;9722;48.754;8.868;2023-11-21T00:31:25;1.90;;;1.30;;
19179;SDS011;9722;48.754;8.868;2023-11-21T00:34:46;2.77;;;1.40;;
19179;SDS011;9722;48.754;8.868;2023-11-21T00:38:06;1.00;;;0.80;;
19179;SDS011;9722;48.754;8.868;2023-11-21T00:41:28;1.77;;;1.07;;
19179;SDS011;9722;48.754;8.868;2023-11-21T00:44:49;2.17;;;1.13;;
19179;SDS011;9722;48.754;8.868;2023-11-21T00:48:09;1.97;;;1.20;;
19179;SDS011;9722;48.754;8.868;2023-11-21T00:51:30;1.37;;;1.03;;
19179;SDS011;9722;48.754;8.868;2023-11-21T00:54:50;1.80;;;1.00;;
19179;SDS011;9722;48.754;8.868;2023-11-21T00:58:11;1.57;;;1.27;;
19179;SDS011;9722;48.754;8.868;2023-11-21T01:01:31;1.90;;;1.20;;
19179;SDS011;9722;48.754;8.868;2023-11-21T01:04:52;3.00;;;1.43;;
19179;SDS011;9722;48.754;8.868;2023-11-21T01:08:12;2.23;;;1.30;;
19179;SDS011;9722;48.754;8.868;2023-11-21T01:11:34;2.10;;;1.30;;
19179;SDS011;9722;48.754;8.868;2023-11-21T01:14:57;2.43;;;1.17;;
19179;SDS011;9722;48.754;8.868;2023-11-21T01:18:20;1.87;;;1.40;;
19179;SDS011;9722;48.754;8.868;2023-11-21T01:21:41;2.43;;;1.20;;
19179;SDS011;9722;48.754;8.868;2023-11-21T01:25:02;3.43;;;1.43;;
19179;SDS011;9722;48.754;8.868;2023-11-21T01:28:25;1.97;;;1.17;;
19179;SDS011;9722;48.754;8.868;2023-11-21T01:31:46;1.87;;;1.07;;
19179;SDS011;9722;48.754;8.868;2023-11-21T01:35:07;1.83;;;1.00;;
19179;SDS011;9722;48.754;8.868;2023-11-21T01:38:29;1.20;;;1.10;;
19179;SDS011;9722;48.754;8.868;2023-11-21T01:41:50;1.50;;;1.30;;
19179;SDS011;9722;48.754;8.868;2023-11-21T01:45:12;2.73;;;1.27;;
19179;SDS011;9722;48.754;8.868;2023-11-21T01:48:32;2.40;;;1.30;;
19179;SDS011;9722;48.754;8.868;2023-11-21T01:51:54;2.17;;;1.30;;
19179;SDS011;9722;48.754;8.868;2023-11-21T01:55:15;2.30;;;1.20;;
19179;SDS011;9722;48.754;8.868;2023-11-21T01:58:40;1.97;;;1.30;;
19179;SDS011;9722;48.754;8.868;2023-11-21T02:02:01;1.63;;;1.33;;
19179;SDS011;9722;48.754;8.868;2023-11-21T02:05:21;2.33;;;1.40;;
19179;SDS011;9722;48.754;8.868;2023-11-21T02:08:42;3.47;;;1.43;;
19179;SDS011;9722;48.754;8.868;2023-11-21T02:12:04;2.20;;;1.00;;
19179;SDS011;9722;48.754;8.868;2023-11-21T02:15:25;1.47;;;1.30;;
19179;SDS011;9722;48.754;8.868;2023-11-21T02:18:48;2.37;;;1.00;;
19179;SDS011;9722;48.754;8.868;2023-11-21T02:22:09;0.90;;;0.90;;
19179;SDS011;9722;48.754;8.868;2023-11-21T02:25:31;2.03;;;1.20;;
19179;SDS011;9722;48.754;8.868;2023-11-21T02:28:53;1.13;;;0.80;;
19179;SDS011;9722;48.754;8.868;2023-11-21T02:32:13;3.03;;;1.23;;
19179;SDS011;9722;48.754;8.868;2023-11-21T02:35:34;1.00;;;1.00;;
19179;SDS011;9722;48.754;8.868;2023-11-21T02:38:55;0.97;;;0.80;;
19179;SDS011;9722;48.754;8.868;2023-11-21T02:42:15;1.57;;;1.10;;
19179;SDS011;9722;48.754;8.868;2023-11-21T02:45:36;2.10;;;0.87;;
19179;SDS011;9722;48.754;8.868;2023-11-21T02:48:56;1.23;;;1.10;;
19179;SDS011;9722;48.754;8.868;2023-11-21T02:52:18;1.53;;;0.80;;
19179;SDS011;9722;48.754;8.868;2023-11-21T02:55:39;1.53;;;1.37;;
19179;SDS011;9722;48.754;8.868;2023-11-21T02:58:59;1.23;;;0.73;;
19179;SDS011;9722;48.754;8.868;2023-11-21T03:02:20;1.80;;;0.77;;
19179;SDS011;9722;48.754;8.868;2023-11-21T03:05:42;0.80;;;0.80;;
19179;SDS011;9722;48.754;8.868;2023-11-21T03:09:02;1.00;;;0.80;;
19179;SDS011;9722;48.754;8.868;2023-11-21T03:12:23;1.17;;;0.80;;
19179;SDS011;9722;48.754;8.868;2023-11-21T03:15:43;1.00;;;0.80;;
19179;SDS011;9722;48.754;8.868;2023-11-21T03:19:04;1.77;;;0.80;;
19179;SDS011;9722;48.754;8.868;2023-11-21T03:22:25;0.67;;;0.60;;
19179;SDS011;9722;48.754;8.868;2023-11-21T03:25:46;1.30;;;0.70;;
19179;SDS011;9722;48.754;8.868;2023-11-21T03:29:06;0.60;;;0.60;;
19179;SDS011;9722;48.754;8.868;2023-11-21T03:32:27;0.70;;;0.50;;
19179;SDS011;9722;48.754;8.868;2023-11-21T03:35:47;0.70;;;0.47;;
19179;SDS011;9722;48.754;8.868;2023-11-21T03:39:09;0.70;;;0.50;;
19179;SDS011;9722;48.754;8.868;2023-11-21T03:42:29;0.73;;;0.60;;
19179;SDS011;9722;48.754;8.868;2023-11-21T03:45:50;3.17;;;0.60;;
19179;SDS011;9722;48.754;8.868;2023-11-21T03:49:10;0.50;;;0.50;;
19179;SDS011;9722;48.754;8.868;2023-11-21T03:52:31;1.47;;;0.80;;
19179;SDS011;9722;48.754;8.868;2023-11-21T03:55:51;0.73;;;0.73;;
19179;SDS011;9722;48.754;8.868;2023-11-21T03:59:12;1.13;;;0.60;;
19179;SDS011;9722;48.754;8.868;2023-11-21T04:02:32;0.60;;;0.50;;
19179;SDS011;9722;48.754;8.868;2023-11-21T04:05:53;0.87;;;0.40;;
19179;SDS011;9722;48.754;8.868;2023-11-21T04:09:13;0.73;;;0.50;;
19179;SDS011;9722;48.754;8.868;2023-11-21T04:12:37;0.50;;;0.50;;
19179;SDS011;9722;48.754;8.868;2023-11-21T04:15:58;1.10;;;0.40;;
19179;SDS011;9722;48.754;8.868;2023-11-21T04:19:18;0.83;;;0.60;;
19179;SDS011;9722;48.754;8.868;2023-11-21T04:22:39;2.07;;;0.73;;
19179;SDS011;9722;48.754;8.868;2023-11-21T04:26:03;0.83;;;0.63;;
19179;SDS011;9722;48.754;8.868;2023-11-21T04:29:24;1.37;;;0.80;;
19179;SDS011;9722;48.754;8.868;2023-11-21T04:32:44;4.27;;;0.70;;
19179;SDS011;9722;48.754;8.868;2023-11-21T04:36:05;1.07;;;0.50;;
19179;SDS011;9722;48.754;8.868;2023-11-21T04:39:26;1.70;;;0.60;;
19179;SDS011;9722;48.754;8.868;2023-11-21T04:42:46;1.60;;;0.70;;
19179;SDS011;9722;48.754;8.868;2023-11-21T04:46:08;0.43;;;0.43;;
19179;SDS011;9722;48.754;8.868;2023-11-21T04:49:29;0.40;;;0.40;;
19179;SDS011;9722;48.754;8.868;2023-11-21T04:52:49;0.50;;;0.50;;
19179;SDS011;9722;48.754;8.868;2023-11-21T04:56:10;1.23;;;1.13;;
19179;SDS011;9722;48.754;8.868;2023-11-21T04:59:30;1.47;;;1.20;;
19179;SDS011;9722;48.754;8.868;2023-11-21T05:02:51;0.60;;;0.53;;
19179;SDS011;9722;48.754;8.868;2023-11-21T05:06:12;1.73;;;0.40;;
19179;SDS011;9722;48.754;8.868;2023-11-21T05:09:34;0.67;;;0.40;;
19179;SDS011;9722;48.754;8.868;2023-11-21T05:12:55;1.33;;;0.67;;
19179;SDS011;9722;48.754;8.868;2023-11-21T05:16:16;1.07;;;0.80;;
19179;SDS011;9722;48.754;8.868;2023-11-21T05:19:36;1.33;;;0.90;;
19179;SDS011;9722;48.754;8.868;2023-11-21T05:22:57;1.93;;;0.90;;
19179;SDS011;9722;48.754;8.868;2023-11-21T05:26:18;2.10;;;0.73;;
19179;SDS011;9722;48.754;8.868;2023-11-21T05:29:39;0.90;;;0.80;;
19179;SDS011;9722;48.754;8.868;2023-11-21T05:32:59;1.07;;;0.90;;
19179;SDS011;9722;48.754;8.868;2023-11-21T05:36:20;1.73;;;0.80;;
19179;SDS011;9722;48.754;8.868;2023-11-21T05:39:40;0.70;;;0.70;;
19179;SDS011;9722;48.754;8.868;2023-11-21T05:43:01;1.10;;;0.80;;
19179;SDS011;9722;48.754;8.868;2023-11-21T05:46:22;0.60;;;0.60;;
19179;SDS011;9722;48.754;8.868;2023-11-21T05:49:42;0.60;;;0.60;;
19179;SDS011;9722;48.754;8.868;2023-11-21T05:53:04;0.67;;;0.50;;
19179;SDS011;9722;48.754;8.868;2023-11-21T05:56:25;0.70;;;0.60;;
19179;SDS011;9722;48.754;8.868;2023-11-21T05:59:45;1.33;;;0.60;;
19179;SDS011;9722;48.754;8.868;2023-11-21T06:03:06;0.77;;;0.70;;
19179;SDS011;9722;48.754;8.868;2023-11-21T06:06:27;1.40;;;0.50;;
19179;SDS011;9722;48.754;8.868;2023-11-21T06:09:48;1.33;;;0.60;;
19179;SDS011;9722;48.754;8.868;2023-11-21T06:13:10;0.50;;;0.50;;
19179;SDS011;9722;48.754;8.868;2023-11-21T06:16:30;0.40;;;0.40;;
19179;SDS011;9722;48.754;8.868;2023-11-21T06:19:51;3.80;;;1.40;;
19179;SDS011;9722;48.754;8.868;2023-11-21T06:23:12;5.37;;;3.50;;
19179;SDS011;9722;48.754;8.868;2023-11-21T06:26:34;5.70;;;4.23;;
19179;SDS011;9722;48.754;8.868;2023-11-21T06:29:54;14.67;;;9.03;;
19179;SDS011;9722;48.754;8.868;2023-11-21T06:33:15;5.50;;;3.40;;
19179;SDS011;9722;48.754;8.868;2023-11-21T06:36:36;2.20;;;1.93;;
19179;SDS011;9722;48.754;8.868;2023-11-21T06:39:56;1.93;;;1.50;;
19179;SDS011;9722;48.754;8.868;2023-11-21T06:43:18;2.20;;;1.90;;
19179;SDS011;9722;48.754;8.868;2023-11-21T06:46:38;1.87;;;1.70;;
19179;SDS011;9722;48.754;8.868;2023-11-21T06:50:02;2.73;;;1.70;;
19179;SDS011;9722;48.754;8.868;2023-11-21T06:53:22;1.30;;;1.20;;
19179;SDS011;9722;48.754;8.868;2023-11-21T06:56:43;1.10;;;1.10;;
19179;SDS011;9722;48.754;8.868;2023-11-21T07:00:04;1.53;;;1.23;;
19179;SDS011;9722;48.754;8.868;2023-11-21T07:03:26;0.90;;;0.90;;
19179;SDS011;9722;48.754;8.868;2023-11-21T07:06:46;3.20;;;1.10;;
19179;SDS011;9722;48.754;8.868;2023-11-21T07:10:07;1.17;;;1.00;;
19179;SDS011;9722;48.754;8.868;2023-11-21T07:13:28;1.30;;;1.10;;
19179;SDS011;9722;48.754;8.868;2023-11-21T07:16:49;2.37;;;1.70;;
19179;SDS011;9722;48.754;8.868;2023-11-21T07:20:09;2.33;;;1.20;;
19179;SDS011;9722;48.754;8.868;2023-11-21T07:23:30;1.20;;;1.10;;
19179;SDS011;9722;48.754;8.868;2023-11-21T07:26:51;4.17;;;2.53;;
19179;SDS011;9722;48.754;8.868;2023-11-21T07:30:16;3.50;;;3.20;;
19179;SDS011;9722;48.754;8.868;2023-11-21T07:33:37;3.23;;;2.20;;
19179;SDS011;9722;48.754;8.868;2023-11-21T07:36:58;2.30;;;2.10;;
19179;SDS011;9722;48.754;8.868;2023-11-21T07:40:18;3.20;;;1.90;;
19179;SDS011;9722;48.754;8.868;2023-11-21T07:43:39;1.80;;;1.70;;
19179;SDS011;9722;48.754;8.868;2023-11-21T07:46:59;2.00;;;1.40;;
19179;SDS011;9722;48.754;8.868;2023-11-21T07:50:20;1.10;;;1.10;;
19179;SDS011;9722;48.754;8.868;2023-11-21T07:53:41;1.40;;;1.30;;
19179;SDS011;9722;48.754;8.868;2023-11-21T07:57:01;1.57;;;1.30;;
19179;SDS011;9722;48.754;8.868;2023-11-21T08:00:24;1.93;;;1.63;;
19179;SDS011;9722;48.754;8.868;2023-11-21T08:03:44;2.63;;;1.30;;
19179;SDS011;9722;48.754;8.868;2023-11-21T08:07:05;2.60;;;1.60;;
19179;SDS011;9722;48.754;8.868;2023-11-21T08:10:25;1.90;;;1.80;;
19179;SDS011;9722;48.754;8.868;2023-11-21T08:13:46;1.93;;;1.80;;
19179;SDS011;9722;48.754;8.868;2023-11-21T08:17:06;2.30;;;1.73;;
19179;SDS011;9722;48.754;8.868;2023-11-21T08:20:27;2.00;;;1.90;;
19179;SDS011;9722;48.754;8.868;2023-11-21T08:23:48;2.20;;;1.40;;
19179;SDS011;9722;48.754;8.868;2023-11-21T08:27:13;2.00;;;1.40;;
19179;SDS011;9722;48.754;8.868;2023-11-21T08:30:35;1.57;;;1.47;;
19179;SDS011;9722;48.754;8.868;2023-11-21T08:33:56;1.73;;;1.60;;
19179;SDS011;9722;48.754;8.868;2023-11-21T08:37:16;1.70;;;1.60;;
19179;SDS011;9722;48.754;8.868;2023-11-21T08:40:37;2.20;;;2.10;;
19179;SDS011;9722;48.754;8.868;2023-11-21T08:43:58;1.60;;;1.33;;
19179;SDS011;9722;48.754;8.868;2023-11-21T08:47:18;1.70;;;1.60;;
19179;SDS011;9722;48.754;8.868;2023-11-21T08:50:39;3.33;;;3.03;;
19179;SDS011;9722;48.754;8.868;2023-11-21T08:53:59;2.00;;;1.90;;
19179;SDS011;9722;48.754;8.868;2023-11-21T08:57:24;1.50;;;1.40;;
19179;SDS011;9722;48.754;8.868;2023-11-21T09:00:45;2.73;;;1.70;;
19179;SDS011;9722;48.754;8.868;2023-11-21T09:04:06;1.30;;;1.20;;
19179;SDS011;9722;48.754;8.868;2023-11-21T09:07:26;1.40;;;1.30;;
19179;SDS011;9722;48.754;8.868;2023-11-21T09:10:47;1.60;;;1.50;;
19179;SDS011;9722;48.754;8.868;2023-11-21T09:14:07;1.50;;;1.40;;
19179;SDS011;9722;48.754;8.868;2023-11-21T09:17:28;1.60;;;1.50;;
19179;SDS011;9722;48.754;8.868;2023-11-21T09:20:49;2.10;;;1.30;;
19179;SDS011;9722;48.754;8.868;2023-11-21T09:24:09;1.53;;;1.43;;
19179;SDS011;9722;48.754;8.868;2023-11-21T09:27:30;2.03;;;1.20;;
19179;SDS011;9722;48.754;8.868;2023-11-21T09:30:51;1.80;;;1.70;;
19179;SDS011;9722;48.754;8.868;2023-11-21T09:34:12;1.63;;;1.37;;
19179;SDS011;9722;48.754;8.868;2023-11-21T09:37:33;1.30;;;1.20;;
19179;SDS011;9722;48.754;8.868;2023-11-21T09:40:54;1.43;;;1.00;;
19179;SDS011;9722;48.754;8.868;2023-11-21T09:44:17;1.57;;;1.20;;
19179;SDS011;9722;48.754;8.868;2023-11-21T09:47:39;1.20;;;1.10;;
19179;SDS011;9722;48.754;8.868;2023-11-21T09:51:00;1.10;;;1.00;;
19179;SDS011;9722;48.754;8.868;2023-11-21T09:54:23;1.00;;;1.00;;
19179;SDS011;9722;48.754;8.868;2023-11-21T09:57:45;1.53;;;1.23;;
19179;SDS011;9722;48.754;8.868;2023-11-21T10:01:05;3.67;;;1.20;;
19179;SDS011;9722;48.754;8.868;2023-11-21T10:13:02;1.03;;;1.00;;
19179;SDS011;9722;48.754;8.868;2023-11-21T10:16:26;1.93;;;1.27;;
19179;SDS011;9722;48.754;8.868;2023-11-21T10:19:48;1.23;;;1.13;;
19179;SDS011;9722;48.754;8.868;2023-11-21T10:23:08;1.40;;;1.30;;
19179;SDS011;9722;48.754;8.868;2023-11-21T10:26:31;1.70;;;1.10;;
19179;SDS011;9722;48.754;8.868;2023-11-21T10:29:52;0.80;;;0.80;;
19179;SDS011;9722;48.754;8.868;2023-11-21T10:33:13;1.63;;;1.00;;
19179;SDS011;9722;48.754;8.868;2023-11-21T10:36:33;0.70;;;0.70;;
19179;SDS011;9722;48.754;8.868;2023-11-21T10:39:57;0.93;;;0.90;;
19179;SDS011;9722;48.754;8.868;2023-11-21T10:43:24;0.80;;;0.77;;
19179;SDS011;9722;48.754;8.868;2023-11-21T10:46:45;0.80;;;0.80;;
19179;SDS011;9722;48.754;8.868;2023-11-21T10:50:15;0.40;;;0.40;;
19179;SDS011;9722;48.754;8.868;2023-11-21T10:53:39;0.30;;;0.30;;
19179;SDS011;9722;48.754;8.868;2023-11-21T10:57:03;0.50;;;0.50;;
19179;SDS011;9722;48.754;8.868;2023-11-21T11:00:26;0.73;;;0.67;;
19179;SDS011;9722;48.754;8.868;2023-11-21T11:03:47;1.40;;;0.40;;
19179;SDS011;9722;48.754;8.868;2023-11-21T11:07:09;0.40;;;0.40;;
19179;SDS011;9722;48.754;8.868;2023-11-21T11:10:36;0.87;;;0.70;;
19179;SDS011;9722;48.754;8.868;2023-11-21T11:13:57;0.70;;;0.70;;
19179;SDS011;9722;48.754;8.868;2023-11-21T11:17:20;0.63;;;0.63;;
19179;SDS011;9722;48.754;8.868;2023-11-21T11:20:40;0.80;;;0.80;;
19179;SDS011;9722;48.754;8.868;2023-11-21T11:35:14;0.80;;;0.80;;
19179;SDS011;9722;48.754;8.868;2023-11-21T11:38:47;1.00;;;1.00;;
19179;SDS011;9722;48.754;8.868;2023-11-21T11:42:15;0.90;;;0.90;;
19179;SDS011;9722;48.754;8.868;2023-11-21T11:45:37;2.10;;;1.30;;
19179;SDS011;9722;48.754;8.868;2023-11-21T11:49:04;1.10;;;1.10;;
19179;SDS011;9722;48.754;8.868;2023-11-21T11:52:38;1.47;;;1.37;;
19179;SDS011;9722;48.754;8.868;2023-11-21T11:56:22;1.43;;;1.33;;
19179;SDS011;9722;48.754;8.868;2023-11-21T12:03:35;2.10;;;1.90;;
19179;SDS011;9722;48.754;8.868;2023-11-21T12:06:57;2.20;;;2.00;;
19179;SDS011;9722;48.754;8.868;2023-11-21T12:10:27;2.10;;;2.00;;
19179;SDS011;9722;48.754;8.868;2023-11-21T12:13:48;2.37;;;2.20;;
19179;SDS011;9722;48.754;8.868;2023-11-21T12:17:11;1.90;;;1.80;;
19179;SDS011;9722;48.754;8.868;2023-11-21T12:20:33;2.10;;;1.90;;
19179;SDS011;9722;48.754;8.868;2023-11-21T12:23:58;2.70;;;2.47;;
19179;SDS011;9722;48.754;8.868;2023-11-21T12:27:20;2.27;;;2.13;;
19179;SDS011;9722;48.754;8.868;2023-11-21T12:30:41;3.67;;;2.03;;
19179;SDS011;9722;48.754;8.868;2023-11-21T12:34:01;3.43;;;2.17;;
19179;SDS011;9722;48.754;8.868;2023-11-21T12:37:22;2.37;;;2.17;;
19179;SDS011;9722;48.754;8.868;2023-11-21T12:40:43;3.77;;;2.10;;
19179;SDS011;9722;48.754;8.868;2023-11-21T12:44:04;2.50;;;2.30;;
19179;SDS011;9722;48.754;8.868;2023-11-21T12:47:33;2.10;;;2.00;;
19179;SDS011;9722;48.754;8.868;2023-11-21T12:50:55;3.87;;;3.57;;
19179;SDS011;9722;48.754;8.868;2023-11-21T12:54:15;3.30;;;3.07;;
19179;SDS011;9722;48.754;8.868;2023-11-21T12:57:37;3.17;;;2.97;;
19179;SDS011;9722;48.754;8.868;2023-11-21T13:01:03;3.13;;;2.93;;
19179;SDS011;9722;48.754;8.868;2023-11-21T13:04:32;3.20;;;2.90;;
19179;SDS011;9722;48.754;8.868;2023-11-21T13:08:02;3.53;;;3.20;;
19179;SDS011;9722;48.754;8.868;2023-11-21T13:11:23;3.30;;;3.10;;
19179;SDS011;9722;48.754;8.868;2023-11-21T13:14:46;3.20;;;2.90;;
19179;SDS011;9722;48.754;8.868;2023-11-21T13:18:07;2.43;;;2.23;;
19179;SDS011;9722;48.754;8.868;2023-11-21T13:21:27;2.40;;;2.30;;
19179;SDS011;9722;48.754;8.868;2023-11-21T13:24:49;3.30;;;2.20;;
19179;SDS011;9722;48.754;8.868;2023-11-21T13:28:09;2.43;;;2.23;;
19179;SDS011;9722;48.754;8.868;2023-11-21T13:31:30;1.47;;;1.00;;
19179;SDS011;9722;48.754;8.868;2023-11-21T13:34:52;0.90;;;0.60;;
19179;SDS011;9722;48.754;8.868;2023-11-21T13:38:15;0.50;;;0.50;;
19179;SDS011;9722;48.754;8.868;2023-11-21T13:41:37;2.90;;;0.60;;
19179;SDS011;9722;48.754;8.868;2023-11-21T13:44:58;0.70;;;0.50;;
19179;SDS011;9722;48.754;8.868;2023-11-21T13:48:18;2.10;;;0.60;;
19179;SDS011;9722;48.754;8.868;2023-11-21T13:51:42;0.63;;;0.60;;
19179;SDS011;9722;48.754;8.868;2023-11-21T13:55:06;1.07;;;0.60;;
19179;SDS011;9722;48.754;8.868;2023-11-21T13:58:34;0.50;;;0.43;;
19179;SDS011;9722;48.754;8.868;2023-11-21T14:02:13;0.40;;;0.40;;
19179;SDS011;9722;48.754;8.868;2023-11-21T14:05:38;0.73;;;0.60;;
19179;SDS011;9722;48.754;8.868;2023-11-21T14:08:59;0.73;;;0.50;;
19179;SDS011;9722;48.754;8.868;2023-11-21T14:12:27;0.50;;;0.50;;
19179;SDS011;9722;48.754;8.868;2023-11-21T14:15:49;3.10;;;0.50;;
19179;SDS011;9722;48.754;8.868;2023-11-21T14:19:17;0.97;;;0.80;;
19179;SDS011;9722;48.754;8.868;2023-11-21T14:22:38;2.43;;;1.57;;
19179;SDS011;9722;48.754;8.868;2023-11-21T14:25:59;0.90;;;0.90;;
19179;SDS011;9722;48.754;8.868;2023-11-21T14:29:21;0.90;;;0.90;;
19179;SDS011;9722;48.754;8.868;2023-11-21T14:32:43;2.27;;;1.30;;
19179;SDS011;9722;48.754;8.868;2023-11-21T14:36:03;3.20;;;2.67;;
19179;SDS011;9722;48.754;8.868;2023-11-21T14:39:24;3.17;;;2.73;;
19179;SDS011;9722;48.754;8.868;2023-11-21T14:42:47;1.40;;;1.17;;
19179;SDS011;9722;48.754;8.868;2023-11-21T14:46:08;1.20;;;1.10;;
19179;SDS011;9722;48.754;8.868;2023-11-21T14:49:32;1.10;;;1.10;;
19179;SDS011;9722;48.754;8.868;2023-11-21T14:53:05;0.90;;;0.90;;
19179;SDS011;9722;48.754;8.868;2023-11-21T14:56:26;0.70;;;0.70;;
19179;SDS011;9722;48.754;8.868;2023-11-21T14:59:50;0.80;;;0.50;;
19179;SDS011;9722;48.754;8.868;2023-11-21T15:03:12;1.00;;;0.70;;
19179;SDS011;9722;48.754;8.868;2023-11-21T15:06:51;0.73;;;0.67;;
19179;SDS011;9722;48.754;8.868;2023-11-21T15:10:13;0.83;;;0.70;;
19179;SDS011;9722;48.754;8.868;2023-11-21T15:13:35;1.93;;;1.00;;
19179;SDS011;9722;48.754;8.868;2023-11-21T15:16:55;1.23;;;1.13;;
19179;SDS011;9722;48.754;8.868;2023-11-21T15:20:19;1.30;;;1.20;;
19179;SDS011;9722;48.754;8.868;2023-11-21T15:23:41;2.23;;;1.50;;
19179;SDS011;9722;48.754;8.868;2023-11-21T15:27:01;1.60;;;1.50;;
19179;SDS011;9722;48.754;8.868;2023-11-21T15:30:23;2.53;;;2.00;;
19179;SDS011;9722;48.754;8.868;2023-11-21T15:33:45;2.37;;;2.23;;
19179;SDS011;9722;48.754;8.868;2023-11-21T15:37:06;4.00;;;2.30;;
19179;SDS011;9722;48.754;8.868;2023-11-21T15:40:30;2.17;;;1.97;;
19179;SDS011;9722;48.754;8.868;2023-11-21T15:43:51;2.57;;;2.33;;
19179;SDS011;9722;48.754;8.868;2023-11-21T15:47:12;4.87;;;2.97;;
19179;SDS011;9722;48.754;8.868;2023-11-21T15:50:32;25.33;;;7.93;;
19179;SDS011;9722;48.754;8.868;2023-11-21T15:53:54;10.40;;;5.07;;
19179;SDS011;9722;48.754;8.868;2023-11-21T15:57:14;3.20;;;3.00;;
19179;SDS011;9722;48.754;8.868;2023-11-21T16:00:37;3.83;;;2.97;;
19179;SDS011;9722;48.754;8.868;2023-11-21T16:03:57;2.87;;;2.47;;
19179;SDS011;9722;48.754;8.868;2023-11-21T16:07:20;1.93;;;1.80;;
19179;SDS011;9722;48.754;8.868;2023-11-21T16:10:40;2.43;;;2.23;;
19179;SDS011;9722;48.754;8.868;2023-11-21T16:14:01;3.70;;;3.20;;
19179;SDS011;9722;48.754;8.868;2023-11-21T16:17:22;4.13;;;3.77;;
19179;SDS011;9722;48.754;8.868;2023-11-21T16:20:42;4.40;;;3.37;;
19179;SDS011;9722;48.754;8.868;2023-11-21T16:24:03;4.93;;;4.53;;
19179;SDS011;9722;48.754;8.868;2023-11-21T16:27:23;3.83;;;3.53;;
19179;SDS011;9722;48.754;8.868;2023-11-21T16:30:44;3.60;;;3.30;;
19179;SDS011;9722;48.754;8.868;2023-11-21T16:34:10;7.10;;;5.43;;
19179;SDS011;9722;48.754;8.868;2023-11-21T16:37:35;7.10;;;5.90;;
19179;SDS011;9722;48.754;8.868;2023-11-21T16:40:56;6.27;;;5.27;;
19179;SDS011;9722;48.754;8.868;2023-11-21T16:44:18;6.60;;;6.00;;
19179;SDS011;9722;48.754;8.868;2023-11-21T16:47:42;6.33;;;5.83;;
19179;SDS011;9722;48.754;8.868;2023-11-21T16:51:03;7.53;;;6.83;;
19179;SDS011;9722;48.754;8.868;2023-11-21T16:54:23;6.00;;;5.60;;
19179;SDS011;9722;48.754;8.868;2023-11-21T16:57:44;5.80;;;5.30;;
19179;SDS011;9722;48.754;8.868;2023-11-21T17:01:04;5.97;;;5.47;;
19179;SDS011;9722;48.754;8.868;2023-11-21T17:04:29;5.03;;;4.63;;
19179;SDS011;9722;48.754;8.868;2023-11-21T17:07:49;5.23;;;4.83;;
19179;SDS011;9722;48.754;8.868;2023-11-21T17:11:13;6.60;;;5.97;;
19179;SDS011;9722;48.754;8.868;2023-11-21T17:14:33;7.57;;;4.73;;
19179;SDS011;9722;48.754;8.868;2023-11-21T17:17:54;5.00;;;4.60;;
19179;SDS011;9722;48.754;8.868;2023-11-21T17:21:15;5.67;;;4.73;;
19179;SDS011;9722;48.754;8.868;2023-11-21T17:24:36;5.20;;;4.73;;
19179;SDS011;9722;48.754;8.868;2023-11-21T17:27:57;6.00;;;5.50;;
19179;SDS011;9722;48.754;8.868;2023-11-21T17:31:18;7.07;;;6.47;;
19179;SDS011;9722;48.754;8.868;2023-11-21T17:34:38;6.83;;;6.23;;
19179;SDS011;9722;48.754;8.868;2023-11-21T17:37:59;6.80;;;6.20;;
19179;SDS011;9722;48.754;8.868;2023-11-21T17:41:20;8.10;;;7.40;;
19179;SDS011;9722;48.754;8.868;2023-11-21T17:44:41;8.33;;;7.53;;
19179;SDS011;9722;48.754;8.868;2023-11-21T17:48:02;7.33;;;6.63;;
19179;SDS011;9722;48.754;8.868;2023-11-21T17:51:22;7.40;;;6.70;;
19179;SDS011;9722;48.754;8.868;2023-11-21T17:54:43;8.30;;;7.50;;
19179;SDS011;9722;48.754;8.868;2023-11-21T17:58:04;10.53;;;9.00;;
19179;SDS011;9722;48.754;8.868;2023-11-21T18:01:24;12.90;;;9.93;;
19179;SDS011;9722;48.754;8.868;2023-11-21T18:04:53;9.43;;;8.53;;
19179;SDS011;9722;48.754;8.868;2023-11-21T18:08:13;8.30;;;7.47;;
19179;SDS011;9722;48.754;8.868;2023-11-21T18:11:34;7.37;;;6.67;;
19179;SDS011;9722;48.754;8.868;2023-11-21T18:14:55;7.70;;;6.93;;
19179;SDS011;9722;48.754;8.868;2023-11-21T18:18:15;8.77;;;7.87;;
19179;SDS011;9722;48.754;8.868;2023-11-21T18:21:40;9.60;;;8.60;;
19179;SDS011;9722;48.754;8.868;2023-11-21T18:25:01;8.77;;;7.87;;
19179;SDS011;9722;48.754;8.868;2023-11-21T18:28:21;6.90;;;6.30;;
19179;SDS011;9722;48.754;8.868;2023-11-21T18:31:42;6.80;;;6.23;;
19179;SDS011;9722;48.754;8.868;2023-11-21T18:35:03;7.97;;;6.60;;
19179;SDS011;9722;48.754;8.868;2023-11-21T18:38:24;6.80;;;6.20;;
19179;SDS011;9722;48.754;8.868;2023-11-21T18:41:45;6.87;;;6.17;;
19179;SDS011;9722;48.754;8.868;2023-11-21T18:45:06;6.73;;;6.23;;
19179;SDS011;9722;48.754;8.868;2023-11-21T18:48:28;6.23;;;5.73;;
19179;SDS011;9722;48.754;8.868;2023-11-21T18:51:49;6.70;;;5.97;;
19179;SDS011;9722;48.754;8.868;2023-11-21T18:55:09;6.60;;;6.00;;
19179;SDS011;9722;48.754;8.868;2023-11-21T18:58:30;9.80;;;5.43;;
19179;SDS011;9722;48.754;8.868;2023-11-21T19:01:53;6.37;;;5.40;;
19179;SDS011;9722;48.754;8.868;2023-11-21T19:05:14;8.40;;;5.07;;
19179;SDS011;9722;48.754;8.868;2023-11-21T19:08:35;5.40;;;4.87;;
19179;SDS011;9722;48.754;8.868;2023-11-21T19:11:55;7.83;;;5.70;;
19179;SDS011;9722;48.754;8.868;2023-11-21T19:15:16;5.87;;;5.37;;
19179;SDS011;9722;48.754;8.868;2023-11-21T19:18:37;6.20;;;5.60;;
19179;SDS011;9722;48.754;8.868;2023-11-21T19:21:58;6.43;;;5.83;;
19179;SDS011;9722;48.754;8.868;2023-11-21T19:25:18;6.20;;;5.60;;
19179;SDS011;9722;48.754;8.868;2023-11-21T19:28:39;7.27;;;5.67;;
19179;SDS011;9722;48.754;8.868;2023-11-21T19:32:00;6.23;;;5.63;;
19179;SDS011;9722;48.754;8.868;2023-11-21T19:35:20;6.13;;;5.50;;
19179;SDS011;9722;48.754;8.868;2023-11-21T19:38:41;8.60;;;6.10;;
19179;SDS011;9722;48.754;8.868;2023-11-21T19:42:03;7.33;;;6.27;;
19179;SDS011;9722;48.754;8.868;2023-11-21T19:45:24;9.80;;;6.50;;
19179;SDS011;9722;48.754;8.868;2023-11-21T19:48:47;8.57;;;6.77;;
19179;SDS011;9722;48.754;8.868;2023-11-21T19:52:12;7.63;;;6.80;;
19179;SDS011;9722;48.754;8.868;2023-11-21T19:55:32;7.60;;;6.77;;
19179;SDS011;9722;48.754;8.868;2023-11-21T19:58:53;9.93;;;6.90;;
19179;SDS011;9722;48.754;8.868;2023-11-21T20:02:14;8.50;;;6.83;;
19179;SDS011;9722;48.754;8.868;2023-11-21T20:05:35;9.57;;;6.47;;
19179;SDS011;9722;48.754;8.868;2023-11-21T20:08:55;6.80;;;5.93;;
19179;SDS011;9722;48.754;8.868;2023-11-21T20:12:18;9.40;;;6.70;;
19179;SDS011;9722;48.754;8.868;2023-11-21T20:15:39;7.53;;;6.80;;
19179;SDS011;9722;48.754;8.868;2023-11-21T20:19:00;9.93;;;6.80;;
19179;SDS011;9722;48.754;8.868;2023-11-21T20:22:20;10.17;;;6.73;;
19179;SDS011;9722;48.754;8.868;2023-11-21T20:25:41;10.20;;;5.93;;
19179;SDS011;9722;48.754;8.868;2023-11-21T20:29:01;9.23;;;6.23;;
19179;SDS011;9722;48.754;8.868;2023-11-21T20:32:22;6.73;;;6.10;;
19179;SDS011;9722;48.754;8.868;2023-11-21T20:35:44;9.10;;;6.77;;
19179;SDS011;9722;48.754;8.868;2023-11-21T20:39:07;7.27;;;6.63;;
19179;SDS011;9722;48.754;8.868;2023-11-21T20:42:27;7.40;;;6.10;;
19179;SDS011;9722;48.754;8.868;2023-11-21T20:45:48;7.80;;;6.30;;
19179;SDS011;9722;48.754;8.868;2023-11-21T20:49:09;15.60;;;6.77;;
19179;SDS011;9722;48.754;8.868;2023-11-21T20:52:33;8.53;;;6.23;;
19179;SDS011;9722;48.754;8.868;2023-11-21T20:55:53;7.90;;;6.67;;